createdAt,value
2023-01-25T00:00:15.703Z,81.91
2023-01-25T00:03:38.814Z,81.82
2023-01-25T00:06:41.368Z,81.57
2023-01-25T00:09:44.526Z,81.59
2023-01-25T00:12:47.631Z,81.54
2023-01-25T00:15:50.931Z,81.41
2023-01-25T00:18:53.461Z,81.36
2023-01-25T00:21:56.549Z,81.08
2023-01-25T00:24:59.155Z,80.98
2023-01-25T00:28:02.328Z,81.11
2023-01-25T00:31:07.374Z,81.16
2023-01-25T00:34:25.801Z,81.21
2023-01-25T00:37:38.980Z,80.97
2023-01-25T00:40:41.993Z,80.70
2023-01-25T00:43:44.546Z,80.58
2023-01-25T00:46:48.296Z,80.32
2023-01-25T00:49:50.989Z,80.52
2023-01-25T00:52:54.095Z,80.72
2023-01-25T00:55:57.777Z,80.78
2023-01-25T00:59:00.927Z,80.79
2023-01-25T01:02:04.517Z,81.08
2023-01-25T01:05:08.450Z,80.86
2023-01-25T01:08:11.711Z,80.83
2023-01-25T01:11:14.854Z,80.94
2023-01-25T01:14:17.476Z,81.08
2023-01-25T01:17:20.623Z,81.14
2023-01-25T01:20:23.480Z,81.18
2023-01-25T01:23:31.746Z,81.13
2023-01-25T01:26:34.451Z,81.11
2023-01-25T01:29:37.777Z,80.71
2023-01-25T01:32:40.607Z,80.98
2023-01-25T01:35:46.801Z,81.29
2023-01-25T01:38:50.330Z,81.21
2023-01-25T01:41:53.480Z,81.42
2023-01-25T01:44:56.271Z,81.55
2023-01-25T01:47:59.410Z,81.47
2023-01-25T01:51:24.898Z,81.50
2023-01-25T01:54:36.402Z,81.74
2023-01-25T01:57:44.960Z,81.81
2023-01-25T02:00:48.341Z,81.58
2023-01-25T02:03:51.905Z,81.68
2023-01-25T02:07:03.440Z,81.94
2023-01-25T02:10:09.632Z,81.66
2023-01-25T02:13:13.087Z,81.09
2023-01-25T02:16:18.864Z,80.84
2023-01-25T02:19:48.136Z,80.94
2023-01-25T02:23:01.760Z,81.12
2023-01-25T02:26:07.054Z,81.12
2023-01-25T02:29:10.827Z,81.06
2023-01-25T02:32:15.169Z,81.15
2023-01-25T02:35:23.912Z,81.44
2023-01-25T02:38:35.683Z,81.48
2023-01-25T02:41:41.100Z,81.50
2023-01-25T02:44:44.803Z,81.52
2023-01-25T02:47:48.727Z,81.45
2023-01-25T02:50:51.935Z,81.48
2023-01-25T02:53:55.023Z,81.69
2023-01-25T02:56:58.088Z,81.72
2023-01-25T03:00:01.198Z,81.75
2023-01-25T03:03:04.534Z,82.05
2023-01-25T03:06:08.112Z,81.46
2023-01-25T03:09:12.202Z,81.28
2023-01-25T03:12:15.372Z,81.57
2023-01-25T03:15:18.705Z,81.74
2023-01-25T03:18:22.380Z,81.86
2023-01-25T03:21:25.329Z,82.02
2023-01-25T03:24:28.532Z,82.19
2023-01-25T03:27:31.893Z,82.18
2023-01-25T03:30:36.115Z,82.39
2023-01-25T03:33:39.184Z,82.29
2023-01-25T03:36:43.191Z,82.13
2023-01-25T03:39:46.036Z,82.04
2023-01-25T03:42:48.998Z,82.18
2023-01-25T03:45:57.844Z,80.81
2023-01-25T03:49:00.740Z,81.27
2023-01-25T03:52:04.499Z,80.81
2023-01-25T03:55:08.523Z,81.02
2023-01-25T03:58:12.312Z,80.71
2023-01-25T04:01:15.814Z,80.63
2023-01-25T04:04:19.016Z,80.69
2023-01-25T04:07:21.766Z,80.78
2023-01-25T04:10:24.902Z,80.74
2023-01-25T04:13:27.959Z,80.64
2023-01-25T04:16:31.946Z,80.63
2023-01-25T04:19:35.977Z,80.73
2023-01-25T04:22:39.257Z,81.00
2023-01-25T04:25:42.544Z,80.85
2023-01-25T04:28:46.090Z,80.25
2023-01-25T04:31:49.504Z,79.57
2023-01-25T04:34:52.746Z,78.85
2023-01-25T04:37:58.450Z,79.36
2023-01-25T04:41:01.767Z,79.23
2023-01-25T04:44:04.352Z,79.39
2023-01-25T04:47:07.607Z,79.82
2023-01-25T04:50:11.162Z,79.44
2023-01-25T04:53:14.263Z,78.61
2023-01-25T04:56:17.098Z,78.26
2023-01-25T04:59:20.404Z,78.53
2023-01-25T05:02:23.471Z,78.43
2023-01-25T05:05:26.731Z,78.07
2023-01-25T05:08:29.679Z,78.97
2023-01-25T05:11:34.655Z,79.37
2023-01-25T05:14:38.907Z,79.43
2023-01-25T05:17:42.369Z,79.49
2023-01-25T05:20:45.773Z,79.28
2023-01-25T05:23:48.896Z,79.44
2023-01-25T05:27:05.626Z,79.20
2023-01-25T05:30:10.603Z,79.27
2023-01-25T05:33:13.425Z,79.37
2023-01-25T05:36:16.607Z,79.79
2023-01-25T05:39:19.242Z,79.79
2023-01-25T05:42:23.113Z,79.94
2023-01-25T05:45:26.416Z,79.77
2023-01-25T05:48:30.502Z,79.64
2023-01-25T05:51:33.832Z,79.66
2023-01-25T05:54:37.507Z,79.32
2023-01-25T05:57:40.525Z,79.20
2023-01-25T06:00:43.752Z,79.11
2023-01-25T06:03:49.337Z,79.12
2023-01-25T06:06:53.081Z,79.09
2023-01-25T06:09:56.403Z,77.76
2023-01-25T06:13:00.001Z,78.31
2023-01-25T06:16:03.274Z,78.33
2023-01-25T06:19:13.532Z,78.34
2023-01-25T06:22:16.809Z,78.24
2023-01-25T06:25:19.672Z,77.71
2023-01-25T06:28:22.579Z,77.81
2023-01-25T06:31:25.807Z,77.91
2023-01-25T06:34:29.092Z,78.12
2023-01-25T06:37:33.052Z,77.53
2023-01-25T06:40:35.820Z,77.05
2023-01-25T06:43:39.369Z,77.34
2023-01-25T06:46:42.099Z,76.64
2023-01-25T06:49:44.763Z,76.85
2023-01-25T06:52:57.061Z,76.73
2023-01-25T06:56:00.954Z,76.26
2023-01-25T06:59:04.808Z,76.18
2023-01-25T07:02:07.848Z,76.98
2023-01-25T07:05:11.463Z,77.05
2023-01-25T07:08:14.402Z,76.94
2023-01-25T07:11:19.138Z,76.60
2023-01-25T07:14:22.182Z,75.69
2023-01-25T07:17:25.042Z,75.57
2023-01-25T07:20:27.853Z,75.16
2023-01-25T07:23:32.632Z,75.96
2023-01-25T07:26:35.514Z,75.47
2023-01-25T07:29:38.348Z,74.91
2023-01-25T07:32:41.112Z,74.25
2023-01-25T07:35:44.010Z,73.22
2023-01-25T07:38:47.692Z,72.66
2023-01-25T07:41:50.710Z,71.81
2023-01-25T07:44:53.874Z,71.21
2023-01-25T07:48:04.259Z,71.32
2023-01-25T07:51:12.952Z,71.06
2023-01-25T07:54:15.823Z,70.66
2023-01-25T07:57:20.378Z,70.29
2023-01-25T08:00:24.849Z,70.24
2023-01-25T08:03:28.205Z,69.74
2023-01-25T08:06:35.927Z,69.78
2023-01-25T08:09:39.813Z,69.53
2023-01-25T08:12:46.380Z,69.47
2023-01-25T08:15:56.284Z,69.69
2023-01-25T08:19:00.885Z,69.15
2023-01-25T08:22:04.271Z,69.88
2023-01-25T08:25:07.708Z,68.55
2023-01-25T08:28:11.098Z,67.99
2023-01-25T08:31:19.622Z,68.07
2023-01-25T08:34:23.091Z,67.47
2023-01-25T08:37:29.603Z,66.51
2023-01-25T08:40:33.777Z,65.02
2023-01-25T08:43:38.700Z,65.12
2023-01-25T08:46:41.921Z,64.73
2023-01-25T08:49:44.733Z,63.52
2023-01-25T08:52:47.861Z,63.71
2023-01-25T08:55:50.523Z,64.00
2023-01-25T08:58:54.025Z,64.41
2023-01-25T09:01:56.580Z,63.99
2023-01-25T09:04:59.712Z,64.88
2023-01-25T09:08:02.855Z,64.31
2023-01-25T09:11:08.358Z,64.92
2023-01-25T09:14:10.928Z,64.98
2023-01-25T09:17:14.045Z,66.11
2023-01-25T09:20:17.243Z,66.03
2023-01-25T09:23:22.914Z,66.33
2023-01-25T09:26:25.666Z,66.18
2023-01-25T09:29:28.854Z,66.83
2023-01-25T09:32:31.517Z,66.84
2023-01-25T09:35:35.684Z,67.24
2023-01-25T09:38:41.126Z,67.69
2023-01-25T09:42:15.687Z,67.67
2023-01-25T09:45:34.730Z,67.85
2023-01-25T09:48:53.908Z,67.60
2023-01-25T09:52:08.164Z,67.94
2023-01-25T09:55:15.009Z,68.09
2023-01-25T09:58:22.153Z,68.39
2023-01-25T10:01:46.901Z,68.05
2023-01-25T10:04:54.277Z,68.57
2023-01-25T10:08:16.412Z,67.47
2023-01-25T10:11:26.951Z,68.39
2023-01-25T10:14:35.619Z,68.10
2023-01-25T10:17:40.952Z,67.13
2023-01-25T10:20:56.476Z,67.06
2023-01-25T10:24:14.161Z,66.60
2023-01-25T10:27:22.871Z,66.56
2023-01-25T10:30:41.711Z,66.25
2023-01-25T10:33:47.179Z,65.91
2023-01-25T10:37:14.810Z,66.41
2023-01-25T10:40:26.977Z,67.00
2023-01-25T10:43:30.210Z,66.18
2023-01-25T10:46:33.673Z,66.42
2023-01-25T10:49:47.911Z,66.83
2023-01-25T10:52:58.648Z,66.29
2023-01-25T10:56:19.376Z,66.30
2023-01-25T10:59:27.306Z,66.15
2023-01-25T11:02:36.336Z,66.34
2023-01-25T11:05:41.859Z,65.94
2023-01-25T11:08:44.786Z,65.81
2023-01-25T11:12:02.337Z,66.29
2023-01-25T11:15:24.787Z,66.69
2023-01-25T11:18:36.009Z,66.76
2023-01-25T11:21:59.953Z,66.27
2023-01-25T11:25:28.040Z,65.84
2023-01-25T11:28:30.902Z,65.96
2023-01-25T11:31:35.167Z,65.85
2023-01-25T11:34:38.108Z,65.51
2023-01-25T11:38:02.544Z,65.71
2023-01-25T11:41:25.175Z,65.56
2023-01-25T11:45:05.310Z,65.34
2023-01-25T11:48:47.859Z,65.57
2023-01-25T11:52:00.025Z,65.56
2023-01-25T11:55:18.118Z,66.02
2023-01-25T11:58:40.498Z,64.69
2023-01-25T12:02:36.062Z,64.85
2023-01-25T12:06:50.953Z,65.36
2023-01-25T12:10:09.372Z,65.46
2023-01-25T12:13:36.629Z,66.02
2023-01-25T12:17:07.687Z,65.02
2023-01-25T12:20:31.516Z,65.90
2023-01-25T12:23:57.747Z,66.05
2023-01-25T12:27:29.652Z,66.52
2023-01-25T12:30:55.042Z,66.20
2023-01-25T12:34:05.037Z,66.02
2023-01-25T12:37:24.714Z,65.96
2023-01-25T12:40:30.195Z,65.57
2023-01-25T12:43:45.606Z,66.60
2023-01-25T12:47:05.409Z,66.53
2023-01-25T12:50:47.483Z,66.09
2023-01-25T12:53:53.261Z,66.69
2023-01-25T12:57:02.531Z,67.20
2023-01-25T13:00:45.884Z,66.90
2023-01-25T13:04:11.065Z,66.76
2023-01-25T13:07:25.468Z,66.23
2023-01-25T13:10:33.384Z,66.84
2023-01-25T13:13:38.955Z,65.95
2023-01-25T13:17:18.453Z,66.28
2023-01-25T13:21:00.177Z,66.69
2023-01-25T13:24:16.845Z,66.30
2023-01-25T13:27:26.535Z,65.95
2023-01-25T13:30:34.682Z,65.57
2023-01-25T13:33:40.182Z,66.13
2023-01-25T13:37:05.985Z,65.95
2023-01-25T13:40:35.513Z,65.67
2023-01-25T13:43:46.405Z,65.29
2023-01-25T13:46:49.464Z,64.64
2023-01-25T13:50:06.419Z,65.37
2023-01-25T13:53:17.813Z,65.62
2023-01-25T13:56:47.935Z,65.58
2023-01-25T14:00:11.190Z,65.69
2023-01-25T14:03:37.430Z,65.75
2023-01-25T14:06:41.516Z,65.55
2023-01-25T14:09:46.384Z,65.84
2023-01-25T14:12:51.076Z,65.73
2023-01-25T14:15:59.871Z,64.62
2023-01-25T14:19:22.602Z,65.09
2023-01-25T14:22:28.152Z,65.54
2023-01-25T14:25:33.386Z,64.93
2023-01-25T14:28:36.416Z,65.40
2023-01-25T14:31:40.271Z,65.58
2023-01-25T14:34:45.607Z,65.69
2023-01-25T14:37:48.645Z,65.69
2023-01-25T14:40:58.423Z,65.87
2023-01-25T14:44:10.642Z,65.87
2023-01-25T14:47:23.458Z,65.90
2023-01-25T14:50:37.906Z,66.64
2023-01-25T14:53:45.688Z,66.55
2023-01-25T14:56:51.837Z,66.94
2023-01-25T14:59:56.246Z,66.97
2023-01-25T15:03:05.734Z,67.31
2023-01-25T15:06:08.930Z,67.24
2023-01-25T15:10:01.195Z,67.34
2023-01-25T15:13:14.233Z,67.54
2023-01-25T15:16:18.873Z,67.92
2023-01-25T15:19:30.061Z,67.83
2023-01-25T15:22:35.036Z,68.13
2023-01-25T15:25:49.961Z,68.34
2023-01-25T15:28:57.292Z,68.35
2023-01-25T15:32:02.054Z,68.60
2023-01-25T15:35:21.851Z,68.63
2023-01-25T15:38:25.689Z,68.65
2023-01-25T15:41:28.721Z,68.84
2023-01-25T15:44:33.336Z,69.18
2023-01-25T15:47:37.413Z,69.38
2023-01-25T15:50:41.361Z,69.57
2023-01-25T15:53:49.033Z,69.75
2023-01-25T15:56:56.129Z,69.62
2023-01-25T16:00:01.844Z,70.12
2023-01-25T16:03:07.871Z,70.16
2023-01-25T16:06:34.142Z,70.18
2023-01-25T16:09:36.704Z,70.58
2023-01-25T16:12:39.823Z,70.64
2023-01-25T16:15:42.539Z,70.84
2023-01-25T16:18:46.218Z,70.55
2023-01-25T16:21:49.657Z,70.88
2023-01-25T16:24:53.083Z,71.04
2023-01-25T16:27:55.723Z,71.07
2023-01-25T16:30:59.117Z,71.29
2023-01-25T16:34:01.949Z,71.05
2023-01-25T16:37:05.015Z,71.43
2023-01-25T16:40:26.148Z,71.64
2023-01-25T16:43:42.094Z,72.08
2023-01-25T16:46:45.410Z,72.49
2023-01-25T16:49:48.451Z,72.72
2023-01-25T16:52:51.747Z,72.58
2023-01-25T16:55:54.869Z,72.62
2023-01-25T16:59:01.383Z,72.56
2023-01-25T17:02:04.637Z,72.07
2023-01-25T17:05:09.305Z,72.16
2023-01-25T17:08:12.537Z,72.23
2023-01-25T17:11:15.977Z,72.66
2023-01-25T17:14:20.593Z,72.80
2023-01-25T17:17:24.100Z,72.61
2023-01-25T17:20:27.293Z,72.81
2023-01-25T17:23:32.166Z,72.93
2023-01-25T17:26:35.661Z,73.02
2023-01-25T17:29:38.311Z,72.91
2023-01-25T17:32:41.522Z,72.76
2023-01-25T17:35:44.226Z,72.53
2023-01-25T17:38:47.887Z,72.62
2023-01-25T17:41:51.474Z,72.86
2023-01-25T17:44:54.634Z,73.24
2023-01-25T17:47:57.317Z,72.98
2023-01-25T17:51:02.123Z,72.91
2023-01-25T17:54:05.806Z,73.02
2023-01-25T17:57:10.504Z,73.03
2023-01-25T18:00:14.087Z,72.91
2023-01-25T18:03:16.917Z,73.10
2023-01-25T18:06:24.569Z,73.23
2023-01-25T18:09:27.593Z,73.47
2023-01-25T18:12:30.458Z,73.52
2023-01-25T18:15:33.821Z,73.62
2023-01-25T18:18:37.381Z,73.98
2023-01-25T18:21:42.039Z,73.75
2023-01-25T18:24:45.969Z,73.88
2023-01-25T18:27:49.237Z,74.08
2023-01-25T18:30:57.391Z,74.28
2023-01-25T18:34:00.518Z,74.21
2023-01-25T18:37:17.829Z,74.14
2023-01-25T18:40:20.729Z,74.00
2023-01-25T18:43:23.731Z,73.97
2023-01-25T18:46:27.927Z,74.03
2023-01-25T18:49:30.849Z,74.38
2023-01-25T18:52:35.254Z,74.42
2023-01-25T18:55:38.492Z,74.44
2023-01-25T18:58:42.174Z,74.48
2023-01-25T19:01:45.140Z,74.57
2023-01-25T19:04:48.403Z,74.62
2023-01-25T19:07:52.615Z,74.63
2023-01-25T19:11:02.005Z,73.92
2023-01-25T19:14:05.808Z,74.06
2023-01-25T19:17:11.469Z,73.32
2023-01-25T19:20:14.398Z,74.36
2023-01-25T19:23:17.218Z,74.85
2023-01-25T19:26:22.104Z,74.92
2023-01-25T19:29:25.005Z,75.05
2023-01-25T19:32:29.455Z,74.16
2023-01-25T19:35:32.320Z,74.46
2023-01-25T19:38:39.017Z,74.62
2023-01-25T19:41:41.972Z,74.70
2023-01-25T19:44:44.879Z,74.73
2023-01-25T19:47:47.739Z,74.79
2023-01-25T19:50:50.690Z,74.43
2023-01-25T19:54:05.582Z,74.46
2023-01-25T19:57:08.527Z,74.54
2023-01-25T20:00:12.009Z,74.59
2023-01-25T20:03:16.670Z,74.77
2023-01-25T20:06:21.158Z,74.69
2023-01-25T20:09:28.567Z,74.28
2023-01-25T20:12:31.565Z,74.02
2023-01-25T20:15:34.508Z,73.91
2023-01-25T20:18:37.689Z,73.52
2023-01-25T20:21:40.924Z,73.33
2023-01-25T20:24:43.790Z,73.22
2023-01-25T20:27:46.713Z,73.40
2023-01-25T20:30:49.620Z,73.32
2023-01-25T20:33:55.274Z,73.43
2023-01-25T20:37:00.324Z,73.37
2023-01-25T20:40:03.734Z,72.30
2023-01-25T20:43:06.613Z,72.78
2023-01-25T20:46:09.436Z,72.89
2023-01-25T20:49:18.086Z,72.84
2023-01-25T20:52:20.917Z,72.84
2023-01-25T20:55:23.750Z,72.54
2023-01-25T20:58:27.660Z,72.65
2023-01-25T21:01:38.804Z,72.93
2023-01-25T21:04:42.075Z,72.90
2023-01-25T21:07:45.119Z,72.56
2023-01-25T21:10:56.654Z,72.60
2023-01-25T21:13:59.687Z,72.81
2023-01-25T21:17:02.581Z,72.77
2023-01-25T21:20:07.273Z,72.77
2023-01-25T21:23:10.411Z,72.71
2023-01-25T21:26:15.718Z,70.98
2023-01-25T21:29:21.122Z,70.29
2023-01-25T21:32:25.567Z,71.00
2023-01-25T21:35:29.570Z,70.41
2023-01-25T21:38:32.756Z,70.95
2023-01-25T21:41:35.663Z,71.33
2023-01-25T21:44:57.252Z,71.49
2023-01-25T21:48:00.240Z,71.16
2023-01-25T21:51:21.552Z,71.20
2023-01-25T21:54:30.820Z,71.31
2023-01-25T21:57:33.860Z,71.03
2023-01-25T22:00:37.207Z,71.69
2023-01-25T22:03:40.360Z,71.33
2023-01-25T22:06:43.471Z,71.36
2023-01-25T22:09:49.084Z,71.50
2023-01-25T22:12:51.712Z,71.56
2023-01-25T22:15:58.880Z,71.85
2023-01-25T22:19:01.496Z,72.09
2023-01-25T22:22:04.616Z,72.17
2023-01-25T22:25:07.375Z,72.34
2023-01-25T22:28:14.417Z,72.21
2023-01-25T22:31:19.252Z,72.22
2023-01-25T22:34:22.581Z,72.29
2023-01-25T22:37:25.213Z,72.31
2023-01-25T22:40:28.519Z,72.66
2023-01-25T22:43:32.790Z,72.76
2023-01-25T22:46:37.143Z,72.65
2023-01-25T22:49:39.902Z,72.75
2023-01-25T22:52:43.001Z,72.66
2023-01-25T22:55:45.579Z,72.59
2023-01-25T22:58:49.405Z,72.52
2023-01-25T23:01:52.041Z,72.76
2023-01-25T23:04:55.471Z,72.79
2023-01-25T23:07:59.268Z,72.69
2023-01-25T23:11:13.831Z,72.32
2023-01-25T23:14:35.291Z,72.76
2023-01-25T23:18:01.053Z,72.58
2023-01-25T23:21:04.894Z,72.57
2023-01-25T23:24:09.288Z,72.74
2023-01-25T23:27:12.724Z,72.32
2023-01-25T23:30:16.752Z,72.96
2023-01-25T23:33:19.305Z,73.29
2023-01-25T23:36:27.228Z,74.12
2023-01-25T23:39:30.103Z,73.97
2023-01-25T23:42:33.202Z,73.90
2023-01-25T23:45:35.779Z,73.95
2023-01-25T23:48:38.949Z,74.15
2023-01-25T23:51:41.809Z,74.53
2023-01-25T23:54:44.985Z,74.67
2023-01-25T23:57:47.946Z,74.72
